createdAt,value
2019-06-01T00:02:28.414Z,92.10
2019-06-01T00:05:32.731Z,91.80
2019-06-01T00:08:37.008Z,91.90
2019-06-01T00:11:41.402Z,91.90
2019-06-01T00:14:46.089Z,91.90
2019-06-01T00:17:51.028Z,92.00
2019-06-01T00:20:55.312Z,92.10
2019-06-01T00:23:59.766Z,92.10
2019-06-01T00:27:04.233Z,92.10
2019-06-01T00:30:09.236Z,91.90
2019-06-01T00:33:13.569Z,91.90
2019-06-01T00:36:17.879Z,91.70
2019-06-01T00:39:22.237Z,91.70
2019-06-01T00:42:26.669Z,91.70
2019-06-01T00:45:31.032Z,91.50
2019-06-01T00:48:35.316Z,91.50
2019-06-01T00:51:39.574Z,91.50
2019-06-01T00:54:45.175Z,91.20
2019-06-01T00:57:49.825Z,90.90
2019-06-01T01:00:55.263Z,91.00
2019-06-01T01:03:59.674Z,90.90
2019-06-01T01:07:04.076Z,90.80
2019-06-01T01:10:09.043Z,90.80
2019-06-01T01:13:16.321Z,90.70
2019-06-01T01:16:22.552Z,90.60
2019-06-01T01:19:27.012Z,90.60
2019-06-01T01:22:31.426Z,90.40
2019-06-01T01:25:35.861Z,90.70
2019-06-01T01:28:40.308Z,90.50
2019-06-01T01:31:44.659Z,90.40
2019-06-01T01:34:49.491Z,90.40
2019-06-01T01:37:58.207Z,90.40
2019-06-01T01:41:02.594Z,90.30
2019-06-01T01:44:06.948Z,90.30
2019-06-01T01:47:14.302Z,90.40
2019-06-01T01:50:17.980Z,90.50
2019-06-01T01:53:22.342Z,90.70
2019-06-01T01:56:26.734Z,90.80
2019-06-01T01:59:31.082Z,90.90
2019-06-01T02:02:35.483Z,90.90
2019-06-01T02:05:39.813Z,90.90
2019-06-01T02:08:44.136Z,90.90
2019-06-01T02:11:48.477Z,90.80
2019-06-01T02:14:53.705Z,90.90
2019-06-01T02:17:58.218Z,90.90
2019-06-01T02:21:02.752Z,90.90
2019-06-01T02:24:07.223Z,90.70
2019-06-01T02:27:11.558Z,90.70
2019-06-01T02:30:17.405Z,90.60
2019-06-01T02:33:21.794Z,90.60
2019-06-01T02:36:26.152Z,91.00
2019-06-01T02:39:30.520Z,90.50
2019-06-01T02:42:34.853Z,90.50
2019-06-01T02:45:39.260Z,90.50
2019-06-01T02:48:43.535Z,90.40
2019-06-01T02:51:47.925Z,90.40
2019-06-01T02:54:52.176Z,90.50
2019-06-01T02:57:56.499Z,90.60
2019-06-01T03:01:36.162Z,90.60
2019-06-01T03:04:40.907Z,90.60
2019-06-01T03:07:47.081Z,90.70
2019-06-01T03:10:52.600Z,90.90
2019-06-01T03:13:58.821Z,91.00
2019-06-01T03:17:05.889Z,91.50
2019-06-01T03:20:10.303Z,91.20
2019-06-01T03:23:17.656Z,91.30
2019-06-01T03:26:23.492Z,91.50
2019-06-01T03:29:31.388Z,91.60
2019-06-01T03:32:37.386Z,92.10
2019-06-01T03:35:41.718Z,91.90
2019-06-01T03:38:46.048Z,92.10
2019-06-01T03:41:51.373Z,92.30
2019-06-01T03:44:55.720Z,92.90
2019-06-01T03:48:00.527Z,92.60
2019-06-01T03:51:05.670Z,92.80
2019-06-01T03:54:10.323Z,92.90
2019-06-01T03:57:14.665Z,93.00
2019-06-01T04:00:19.098Z,93.10
2019-06-01T04:03:23.430Z,93.20
2019-06-01T04:06:27.754Z,93.20
2019-06-01T04:09:32.112Z,93.30
2019-06-01T04:12:36.517Z,93.20
2019-06-01T04:15:41.105Z,93.20
2019-06-01T04:18:45.440Z,93.10
2019-06-01T04:21:49.718Z,93.20
2019-06-01T04:24:54.044Z,93.20
2019-06-01T04:27:58.396Z,93.10
2019-06-01T04:31:02.717Z,93.20
2019-06-01T04:34:07.072Z,93.10
2019-06-01T04:37:11.412Z,93.30
2019-06-01T04:40:15.852Z,93.30
2019-06-01T04:43:20.261Z,93.20
2019-06-01T04:46:24.614Z,93.10
2019-06-01T04:49:29.012Z,93.20
2019-06-01T04:52:33.291Z,93.30
2019-06-01T04:55:37.709Z,93.40
2019-06-01T04:58:42.110Z,93.40
2019-06-01T05:01:46.501Z,93.70
2019-06-01T05:04:50.862Z,93.60
2019-06-01T05:07:55.534Z,93.60
2019-06-01T05:10:59.881Z,93.70
2019-06-01T05:14:05.432Z,93.80
2019-06-01T05:17:10.191Z,93.80
2019-06-01T05:20:16.667Z,93.70
2019-06-01T05:23:21.258Z,93.60
2019-06-01T05:26:26.862Z,93.20
2019-06-01T05:29:31.306Z,93.00
2019-06-01T05:32:35.815Z,93.00
2019-06-01T05:35:40.585Z,92.70
2019-06-01T05:38:45.429Z,92.60
2019-06-01T05:41:49.846Z,92.50
2019-06-01T05:44:54.306Z,92.60
2019-06-01T05:47:58.710Z,92.50
2019-06-01T05:51:04.249Z,92.20
2019-06-01T05:54:08.951Z,92.10
2019-06-01T05:57:14.616Z,92.00
2019-06-01T06:00:21.918Z,91.90
2019-06-01T06:03:39.897Z,91.90
2019-06-01T06:06:33.165Z,91.90
2019-06-01T06:09:37.698Z,91.90
2019-06-01T06:12:42.391Z,91.80
2019-06-01T06:15:48.430Z,91.80
2019-06-01T06:18:52.944Z,91.70
2019-06-01T06:21:57.466Z,91.90
2019-06-01T06:25:01.910Z,91.60
2019-06-01T06:28:06.350Z,91.70
2019-06-01T06:31:10.944Z,91.30
2019-06-01T06:34:15.483Z,91.30
2019-06-01T06:37:19.920Z,91.10
2019-06-01T06:40:24.684Z,91.20
2019-06-01T06:43:33.177Z,91.00
2019-06-01T06:46:35.237Z,91.10
2019-06-01T06:49:39.693Z,91.20
2019-06-01T06:52:44.119Z,91.20
2019-06-01T06:55:48.873Z,91.20
2019-06-01T06:58:53.308Z,91.50
2019-06-01T07:01:57.717Z,91.30
2019-06-01T07:05:02.045Z,91.20
2019-06-01T07:08:06.421Z,91.50
2019-06-01T07:11:11.962Z,92.20
2019-06-01T07:14:17.010Z,92.20
2019-06-01T07:17:21.554Z,91.60
2019-06-01T07:20:25.959Z,91.70
2019-06-01T07:23:30.538Z,91.40
2019-06-01T07:26:34.953Z,90.70
2019-06-01T07:29:39.535Z,91.00
2019-06-01T07:32:43.992Z,91.20
2019-06-01T07:35:48.414Z,91.00
2019-06-01T07:38:52.817Z,90.20
2019-06-01T07:41:59.249Z,90.10
2019-06-01T07:45:03.728Z,90.10
2019-06-01T07:48:08.141Z,90.00
2019-06-01T07:51:12.541Z,90.30
2019-06-01T07:54:16.934Z,90.60
2019-06-01T07:57:21.635Z,90.10
2019-06-01T08:00:27.206Z,89.90
2019-06-01T08:03:34.705Z,89.30
2019-06-01T08:06:44.445Z,89.60
2019-06-01T08:09:43.749Z,89.50
2019-06-01T08:12:48.165Z,90.20
2019-06-01T08:15:52.646Z,90.00
2019-06-01T08:18:57.092Z,89.10
2019-06-01T08:22:01.529Z,89.70
2019-06-01T08:25:06.303Z,89.20
2019-06-01T08:28:10.786Z,89.50
2019-06-01T08:31:15.288Z,88.90
2019-06-01T08:34:22.716Z,89.50
2019-06-01T08:37:29.524Z,89.10
2019-06-01T08:40:33.975Z,85.80
2019-06-01T08:43:38.508Z,84.00
2019-06-01T08:46:42.943Z,84.10
2019-06-01T08:49:47.324Z,81.00
2019-06-01T08:52:51.763Z,81.00
2019-06-01T08:55:56.121Z,81.50
2019-06-01T08:59:00.556Z,83.20
2019-06-01T09:02:04.988Z,82.30
2019-06-01T09:05:23.387Z,82.60
2019-06-01T09:08:16.144Z,81.30
2019-06-01T09:11:20.602Z,82.10
2019-06-01T09:14:25.245Z,82.10
2019-06-01T09:17:29.707Z,78.00
2019-06-01T09:20:38.359Z,79.60
2019-06-01T09:23:41.331Z,80.90
2019-06-01T09:26:45.773Z,80.90
2019-06-01T09:29:50.253Z,79.70
2019-06-01T09:32:54.712Z,78.60
2019-06-01T09:36:00.204Z,76.80
2019-06-01T09:39:06.879Z,75.00
2019-06-01T09:42:11.305Z,75.90
2019-06-01T09:45:16.490Z,76.90
2019-06-01T09:48:20.899Z,76.80
2019-06-01T09:51:25.496Z,74.60
2019-06-01T09:54:31.351Z,74.90
2019-06-01T09:57:36.263Z,75.40
2019-06-01T10:00:43.934Z,73.80
2019-06-01T10:03:48.657Z,72.40
2019-06-01T10:06:53.112Z,73.80
2019-06-01T10:09:57.630Z,74.20
2019-06-01T10:13:02.102Z,75.70
2019-06-01T10:16:06.640Z,75.00
2019-06-01T10:19:11.651Z,75.80
2019-06-01T10:22:16.216Z,74.10
2019-06-01T10:25:21.835Z,73.10
2019-06-01T10:28:26.282Z,72.70
2019-06-01T10:31:34.575Z,74.60
2019-06-01T10:34:39.864Z,71.50
2019-06-01T10:37:44.567Z,69.30
2019-06-01T10:40:49.039Z,69.90
2019-06-01T10:43:53.434Z,67.00
2019-06-01T10:46:57.932Z,67.00
2019-06-01T10:50:02.387Z,69.30
2019-06-01T10:53:06.946Z,68.90
2019-06-01T10:56:11.367Z,67.20
2019-06-01T10:59:15.827Z,68.70
2019-06-01T11:02:23.331Z,67.00
2019-06-01T11:05:27.758Z,67.20
2019-06-01T11:08:32.808Z,69.20
2019-06-01T11:11:37.356Z,71.10
2019-06-01T11:14:43.228Z,71.30
2019-06-01T11:17:48.040Z,70.40
2019-06-01T11:20:52.489Z,71.40
2019-06-01T11:23:56.962Z,71.40
2019-06-01T11:27:01.530Z,70.10
2019-06-01T11:30:07.581Z,72.10
2019-06-01T11:33:12.004Z,71.60
2019-06-01T11:36:16.501Z,71.60
2019-06-01T11:39:20.884Z,71.80
2019-06-01T11:42:25.358Z,72.40
2019-06-01T11:45:29.909Z,71.50
2019-06-01T11:48:35.169Z,70.80
2019-06-01T11:51:40.142Z,71.50
2019-06-01T11:54:45.939Z,70.30
2019-06-01T11:57:51.573Z,71.00
2019-06-01T12:00:57.088Z,69.30
2019-06-01T12:04:01.451Z,64.10
2019-06-01T12:07:17.190Z,60.50
2019-06-01T12:10:12.852Z,64.10
2019-06-01T12:13:17.343Z,63.10
2019-06-01T12:16:21.934Z,61.10
2019-06-01T12:19:26.679Z,62.30
2019-06-01T12:22:31.213Z,63.70
2019-06-01T12:25:35.764Z,66.10
2019-06-01T12:28:43.784Z,66.30
2019-06-01T12:31:48.552Z,68.90
2019-06-01T12:34:54.179Z,68.90
2019-06-01T12:38:06.502Z,67.40
2019-06-01T12:41:07.130Z,66.30
2019-06-01T12:44:16.299Z,66.80
2019-06-01T12:47:21.004Z,66.80
2019-06-01T12:50:25.821Z,66.10
2019-06-01T12:53:32.266Z,65.50
2019-06-01T12:56:36.666Z,64.50
2019-06-01T12:59:41.299Z,65.90
2019-06-01T13:02:54.494Z,67.10
2019-06-01T13:05:51.940Z,66.90
2019-06-01T13:08:56.421Z,68.40
2019-06-01T13:12:00.848Z,69.20
2019-06-01T13:15:05.735Z,69.50
2019-06-01T13:18:11.493Z,70.00
2019-06-01T13:21:15.985Z,70.50
2019-06-01T13:24:20.375Z,69.30
2019-06-01T13:27:24.782Z,70.30
2019-06-01T13:30:29.181Z,69.30
2019-06-01T13:33:33.617Z,68.40
2019-06-01T13:36:37.973Z,64.00
2019-06-01T13:39:42.977Z,63.40
2019-06-01T13:42:49.049Z,60.30
2019-06-01T13:45:53.693Z,59.10
2019-06-01T13:48:58.026Z,57.80
2019-06-01T13:52:04.034Z,56.90
2019-06-01T13:55:08.857Z,59.30
2019-06-01T13:58:13.339Z,57.80
2019-06-01T14:01:17.777Z,56.20
2019-06-01T14:04:22.286Z,56.20
2019-06-01T14:07:26.717Z,57.60
2019-06-01T14:10:31.084Z,56.80
2019-06-01T14:13:35.473Z,57.10
2019-06-01T14:16:39.902Z,55.60
2019-06-01T14:19:45.528Z,55.10
2019-06-01T14:22:50.120Z,54.90
2019-06-01T14:25:54.522Z,54.00
2019-06-01T14:28:58.969Z,55.80
2019-06-01T14:32:03.373Z,56.00
2019-06-01T14:35:08.626Z,56.50
2019-06-01T14:38:13.043Z,56.70
2019-06-01T14:41:17.454Z,56.60
2019-06-01T14:44:22.027Z,56.30
2019-06-01T14:47:26.760Z,55.00
2019-06-01T14:50:31.209Z,54.50
2019-06-01T14:53:35.864Z,54.40
2019-06-01T14:56:40.318Z,55.10
2019-06-01T14:59:44.817Z,55.40
2019-06-01T15:02:51.939Z,55.90
2019-06-01T15:05:58.598Z,56.40
2019-06-01T15:09:17.612Z,56.90
2019-06-01T15:12:09.322Z,57.00
2019-06-01T15:15:14.351Z,56.80
2019-06-01T15:18:18.829Z,56.70
2019-06-01T15:21:25.097Z,57.70
2019-06-01T15:24:29.994Z,57.20
2019-06-01T15:27:34.359Z,57.50
2019-06-01T15:30:38.782Z,57.70
2019-06-01T15:33:43.175Z,57.60
2019-06-01T15:36:47.821Z,58.00
2019-06-01T15:39:52.601Z,58.20
2019-06-01T15:42:57.417Z,58.70
2019-06-01T15:46:02.137Z,58.80
2019-06-01T15:49:06.700Z,59.30
2019-06-01T15:52:11.064Z,59.90
2019-06-01T15:55:16.156Z,60.00
2019-06-01T15:58:20.523Z,60.20
2019-06-01T16:01:24.951Z,60.20
2019-06-01T16:04:29.311Z,60.20
2019-06-01T16:07:33.766Z,60.60
2019-06-01T16:10:38.136Z,62.10
2019-06-01T16:13:43.776Z,62.40
2019-06-01T16:16:48.166Z,63.00
2019-06-01T16:19:53.826Z,63.50
2019-06-01T16:22:58.274Z,64.30
2019-06-01T16:26:14.753Z,64.50
2019-06-01T16:29:08.864Z,64.50
2019-06-01T16:32:13.272Z,64.70
2019-06-01T16:35:17.701Z,65.00
2019-06-01T16:38:22.162Z,65.40
2019-06-01T16:41:26.979Z,65.80
2019-06-01T16:44:31.419Z,66.40
2019-06-01T16:47:35.795Z,67.20
2019-06-01T16:50:40.225Z,67.90
2019-06-01T16:53:44.665Z,68.20
2019-06-01T16:56:49.139Z,68.10
2019-06-01T16:59:54.027Z,69.60
2019-06-01T17:02:58.488Z,70.70
2019-06-01T17:06:02.949Z,72.20
2019-06-01T17:09:08.579Z,72.60
2019-06-01T17:12:12.979Z,73.20
2019-06-01T17:15:17.582Z,73.60
2019-06-01T17:18:24.398Z,74.00
2019-06-01T17:21:28.810Z,74.30
2019-06-01T17:24:33.172Z,75.00
2019-06-01T17:27:37.659Z,75.20
2019-06-01T17:30:42.324Z,75.10
2019-06-01T17:33:46.810Z,75.40
2019-06-01T17:36:51.319Z,75.10
2019-06-01T17:39:55.817Z,75.80
2019-06-01T17:43:01.268Z,75.70
2019-06-01T17:46:05.830Z,75.80
2019-06-01T17:49:10.268Z,76.30
2019-06-01T17:52:14.834Z,77.10
2019-06-01T17:55:34.085Z,78.10
2019-06-01T17:58:38.542Z,78.00
2019-06-01T18:01:43.009Z,78.40
2019-06-01T18:04:48.303Z,78.70
2019-06-01T18:07:52.765Z,78.50
2019-06-01T18:10:57.196Z,78.40
2019-06-01T18:14:02.141Z,79.00
2019-06-01T18:17:06.710Z,79.30
2019-06-01T18:20:12.870Z,80.00
2019-06-01T18:23:17.375Z,80.50
2019-06-01T18:26:21.754Z,80.30
2019-06-01T18:29:26.239Z,80.10
2019-06-01T18:32:30.716Z,80.80
2019-06-01T18:35:35.389Z,81.10
2019-06-01T18:38:42.862Z,81.70
2019-06-01T18:41:49.374Z,81.80
2019-06-01T18:44:53.763Z,82.10
2019-06-01T18:47:59.248Z,82.20
2019-06-01T18:51:04.002Z,82.60
2019-06-01T18:54:08.746Z,83.00
2019-06-01T18:57:19.285Z,83.10
2019-06-01T19:00:20.883Z,83.40
2019-06-01T19:03:25.301Z,83.70
2019-06-01T19:06:29.941Z,84.20
2019-06-01T19:09:34.376Z,84.30
2019-06-01T19:12:39.823Z,84.60
2019-06-01T19:15:44.262Z,84.80
2019-06-01T19:18:48.722Z,85.00
2019-06-01T19:21:53.142Z,85.00
2019-06-01T19:24:57.562Z,85.40
2019-06-01T19:28:02.273Z,85.70
2019-06-01T19:31:06.836Z,85.90
2019-06-01T19:34:11.268Z,86.00
2019-06-01T19:37:17.465Z,86.20
2019-06-01T19:40:24.835Z,86.50
2019-06-01T19:43:30.734Z,87.50
2019-06-01T19:46:35.132Z,86.80
2019-06-01T19:49:43.739Z,86.80
2019-06-01T19:52:46.437Z,87.00
2019-06-01T19:55:50.911Z,87.10
2019-06-01T19:58:55.378Z,87.20
2019-06-01T20:02:02.186Z,88.20
2019-06-01T20:05:06.871Z,87.30
2019-06-01T20:08:12.353Z,87.70
2019-06-01T20:11:17.193Z,87.40
2019-06-01T20:14:23.350Z,87.60
2019-06-01T20:17:27.972Z,88.10
2019-06-01T20:20:32.531Z,88.10
2019-06-01T20:23:37.125Z,88.00
2019-06-01T20:26:48.927Z,88.20
2019-06-01T20:29:49.508Z,88.40
2019-06-01T20:32:55.856Z,88.80
2019-06-01T20:36:01.531Z,88.50
2019-06-01T20:39:08.384Z,89.00
2019-06-01T20:42:22.282Z,88.80
2019-06-01T20:45:19.033Z,89.00
2019-06-01T20:48:23.390Z,89.20
2019-06-01T20:51:28.017Z,89.00
2019-06-01T20:54:32.766Z,89.60
2019-06-01T20:57:37.146Z,89.90
2019-06-01T21:00:43.299Z,89.90
2019-06-01T21:03:47.756Z,90.00
2019-06-01T21:06:52.174Z,90.00
2019-06-01T21:09:56.647Z,90.10
2019-06-01T21:13:01.113Z,90.20
2019-06-01T21:16:05.604Z,90.10
2019-06-01T21:19:10.132Z,90.00
2019-06-01T21:22:14.623Z,90.00
2019-06-01T21:25:19.050Z,90.10
2019-06-01T21:28:24.163Z,90.10
2019-06-01T21:31:29.574Z,90.60
2019-06-01T21:34:33.998Z,90.40
2019-06-01T21:37:38.394Z,90.20
2019-06-01T21:40:43.497Z,90.30
2019-06-01T21:43:47.864Z,90.30
2019-06-01T21:46:52.654Z,90.30
2019-06-01T21:49:56.943Z,90.30
2019-06-01T21:53:01.339Z,90.30
2019-06-01T21:56:05.727Z,90.30
2019-06-01T21:59:10.399Z,90.30
2019-06-01T22:02:14.986Z,90.40
2019-06-01T22:05:19.387Z,90.50
2019-06-01T22:08:23.827Z,90.40
2019-06-01T22:11:28.262Z,90.40
2019-06-01T22:14:32.674Z,90.40
2019-06-01T22:17:37.132Z,90.50
2019-06-01T22:20:42.839Z,90.60
2019-06-01T22:23:47.253Z,90.60
2019-06-01T22:26:51.557Z,90.70
2019-06-01T22:29:56.120Z,90.70
2019-06-01T22:33:01.618Z,90.70
2019-06-01T22:36:06.101Z,90.80
2019-06-01T22:39:10.697Z,90.90
2019-06-01T22:42:15.243Z,90.90
2019-06-01T22:45:20.079Z,90.80
2019-06-01T22:48:24.662Z,90.90
2019-06-01T22:51:29.523Z,90.90
2019-06-01T22:54:34.156Z,91.00
2019-06-01T22:57:38.644Z,91.30
2019-06-01T23:00:43.085Z,90.90
2019-06-01T23:03:47.482Z,90.90
2019-06-01T23:06:51.911Z,90.60
2019-06-01T23:09:56.348Z,90.90
2019-06-01T23:13:00.817Z,91.30
2019-06-01T23:16:05.794Z,90.80
2019-06-01T23:19:12.727Z,90.80
2019-06-01T23:22:17.227Z,90.80
2019-06-01T23:25:22.541Z,90.90
2019-06-01T23:28:28.423Z,90.90
2019-06-01T23:31:34.802Z,90.90
2019-06-01T23:34:39.143Z,91.00
2019-06-01T23:37:43.550Z,91.00
2019-06-01T23:40:47.907Z,91.10
2019-06-01T23:44:09.956Z,91.20
2019-06-01T23:46:58.454Z,91.20
2019-06-01T23:50:02.908Z,91.40
2019-06-01T23:53:13.514Z,91.20
2019-06-01T23:56:13.475Z,91.20
2019-06-01T23:59:17.872Z,91.10
